Time;durP1;ratioP1;P1;durP2;ratioP2;P2;SDS_P1;SDS_P2;PMS_P1;PMS_P2;Temp;Humidity;BMP_temperature;BMP_pressure;BME280_temperature;BME280_humidity;BME280_pressure;Samples;Min_cycle;Max_cycle;Signal;HPM_P1;HPM_P2
2022/10/23 00:00:05;;;;;;;1.73;0.90;;;10.50;99.90;;;;;;5069173;28;20071;-88
2022/10/23 00:02:30;;;;;;;2.95;1.00;;;9.40;99.90;;;;;;5066346;28;20055;-91
2022/10/23 00:04:56;;;;;;;3.40;1.20;;;9.80;99.90;;;;;;5062464;28;20041;-89
2022/10/23 00:07:22;;;;;;;2.03;1.00;;;10.30;99.90;;;;;;5082575;28;20080;-89
2022/10/23 00:09:48;;;;;;;3.08;1.20;;;9.40;99.90;;;;;;5093469;28;20039;-88
2022/10/23 00:12:13;;;;;;;1.45;0.90;;;10.50;99.90;;;;;;5075199;28;20047;-89
2022/10/23 00:14:39;;;;;;;2.63;0.98;;;10.40;99.90;;;;;;5071924;28;20428;-89
2022/10/23 00:17:05;;;;;;;2.15;1.20;;;9.40;99.90;;;;;;5084791;28;20127;-89
2022/10/23 00:19:30;;;;;;;3.30;1.10;;;9.40;99.90;;;;;;5058324;28;20041;-91
2022/10/23 00:21:56;;;;;;;2.22;0.90;;;9.80;99.90;;;;;;5060118;28;20075;-88
2022/10/23 00:24:22;;;;;;;1.80;0.82;;;10.20;99.90;;;;;;5060680;28;20036;-90
2022/10/23 00:26:50;;;;;;;2.35;0.85;;;9.40;99.90;;;;;;5058276;28;20509;-88
2022/10/23 00:29:16;;;;;;;2.67;1.10;;;9.40;99.90;;;;;;5066924;28;20114;-90
2022/10/23 00:31:42;;;;;;;1.77;0.90;;;9.90;99.90;;;;;;5083513;28;20124;-90
2022/10/23 00:34:08;;;;;;;2.45;0.88;;;9.40;99.90;;;;;;5069880;28;20381;-90
2022/10/23 00:36:34;;;;;;;1.67;0.98;;;10.60;99.90;;;;;;5066007;28;20115;-92
2022/10/23 00:38:59;;;;;;;2.08;0.95;;;10.50;99.90;;;;;;5074757;28;20051;-89
2022/10/23 00:41:27;;;;;;;2.25;0.90;;;10.20;99.90;;;;;;5094690;28;20055;-90
2022/10/23 00:44:16;;;;;;;2.30;1.00;;;10.30;99.90;;;;;;5082936;28;20036;-91
2022/10/23 00:50:25;;;;;;;1.60;0.75;;;9.40;99.90;;;;;;5101512;28;20034;-88
2022/10/23 00:52:54;;;;;;;1.75;1.00;;;9.40;99.90;;;;;;5089906;28;20051;-88
2022/10/23 00:55:21;;;;;;;1.20;0.80;;;10.30;99.90;;;;;;5079272;28;20099;-87
2022/10/23 00:57:48;;;;;;;2.10;1.05;;;9.00;99.90;;;;;;5091314;28;20059;-88
2022/10/23 01:00:51;;;;;;;1.55;0.90;;;9.30;99.90;;;;;;5085750;28;20115;-91
2022/10/23 01:03:19;;;;;;;1.30;0.80;;;9.30;99.90;;;;;;5074997;28;20226;-88
2022/10/23 01:05:54;;;;;;;1.33;0.80;;;10.00;99.90;;;;;;5100584;28;20056;-87
2022/10/23 01:08:38;;;;;;;2.03;1.10;;;9.60;99.90;;;;;;5072905;28;20494;-86
2022/10/23 01:11:13;;;;;;;1.55;0.90;;;9.20;99.90;;;;;;5074051;28;20048;-87
2022/10/23 01:13:50;;;;;;;1.40;0.75;;;9.20;99.90;;;;;;5070702;28;20411;-89
2022/10/23 01:16:27;;;;;;;1.52;0.88;;;9.10;99.90;;;;;;5091326;28;20044;-88
2022/10/23 01:19:41;;;;;;;1.88;0.88;;;9.10;99.90;;;;;;5066370;28;20052;-88
2022/10/23 01:22:44;;;;;;;2.58;0.90;;;9.10;99.90;;;;;;5003607;28;20146;-89
2022/10/23 01:25:49;;;;;;;2.45;0.80;;;9.10;99.90;;;;;;4983004;28;20064;-88
2022/10/23 01:28:32;;;;;;;1.45;0.80;;;9.00;99.90;;;;;;4986844;28;20046;-87
2022/10/23 01:31:01;;;;;;;1.95;0.80;;;9.10;99.90;;;;;;5006053;28;20510;-88
2022/10/23 01:33:43;;;;;;;2.25;1.00;;;10.30;99.90;;;;;;4993165;28;20050;-89
2022/10/23 01:36:15;;;;;;;2.20;1.02;;;9.00;99.90;;;;;;4991666;28;20046;-88
2022/10/23 01:38:51;;;;;;;2.92;1.25;;;9.30;99.90;;;;;;4986070;28;20056;-88
2022/10/23 01:41:27;;;;;;;3.92;1.15;;;9.00;99.90;;;;;;5000879;28;20050;-88
2022/10/23 01:44:00;;;;;;;3.13;1.10;;;9.40;99.90;;;;;;5001633;28;20128;-90
2022/10/23 01:46:26;;;;;;;1.85;1.00;;;9.60;99.90;;;;;;5003892;28;20433;-88
2022/10/23 01:48:54;;;;;;;1.33;0.90;;;8.90;99.90;;;;;;4975097;28;20042;-88
2022/10/23 01:51:25;;;;;;;4.53;1.13;;;9.00;99.90;;;;;;5002300;28;20064;-91
2022/10/23 01:53:56;;;;;;;1.80;0.98;;;8.90;99.90;;;;;;4993669;28;20104;-90
2022/10/23 01:56:30;;;;;;;3.85;1.10;;;8.80;99.90;;;;;;4994305;28;20053;-88
2022/10/23 01:59:00;;;;;;;3.38;1.00;;;8.80;99.90;;;;;;5064601;28;20080;-88
2022/10/23 02:01:28;;;;;;;1.88;1.15;;;9.00;99.90;;;;;;5075927;28;20058;-89
2022/10/23 02:03:55;;;;;;;1.30;0.90;;;8.80;99.90;;;;;;5091298;28;20086;-89
2022/10/23 02:06:21;;;;;;;3.72;1.02;;;9.50;99.90;;;;;;5089408;28;20052;-88
2022/10/23 02:08:47;;;;;;;1.92;1.10;;;9.80;99.90;;;;;;5087392;28;20454;-88
2022/10/23 02:11:16;;;;;;;2.33;1.20;;;8.70;99.90;;;;;;5068924;28;20036;-88
2022/10/23 02:13:47;;;;;;;1.23;0.82;;;9.00;99.90;;;;;;5095557;28;20531;-90
2022/10/23 02:16:30;;;;;;;1.50;0.90;;;8.70;99.90;;;;;;5093242;28;20040;-88
2022/10/23 02:19:20;;;;;;;1.58;1.02;;;8.70;99.90;;;;;;5066370;28;20062;-90
2022/10/23 02:21:54;;;;;;;3.75;1.10;;;8.60;99.90;;;;;;5062968;28;20485;-89
2022/10/23 02:24:33;;;;;;;5.85;1.20;;;9.30;99.90;;;;;;5076321;28;20071;-88
2022/10/23 02:27:07;;;;;;;1.38;1.05;;;8.60;99.90;;;;;;5072256;28;20479;-88
2022/10/23 02:29:40;;;;;;;2.42;1.23;;;8.70;99.90;;;;;;5087278;28;20090;-88
2022/10/23 02:32:07;;;;;;;3.00;1.17;;;9.20;99.90;;;;;;5094092;28;20109;-90
2022/10/23 02:34:33;;;;;;;2.80;1.38;;;9.10;99.90;;;;;;5068364;28;20046;-88
2022/10/23 02:36:59;;;;;;;2.47;1.20;;;9.00;99.90;;;;;;5070273;28;20141;-87
2022/10/23 02:39:27;;;;;;;2.10;1.20;;;9.60;99.90;;;;;;5054426;28;20473;-88
2022/10/23 02:41:56;;;;;;;1.63;1.10;;;9.10;99.90;;;;;;5088333;28;20032;-88
2022/10/23 02:44:33;;;;;;;2.13;1.00;;;8.60;99.90;;;;;;5094333;28;20111;-90
2022/10/23 02:47:21;;;;;;;3.08;1.20;;;8.70;99.90;;;;;;5062621;28;20390;-88
2022/10/23 02:50:09;;;;;;;1.65;1.00;;;8.60;99.90;;;;;;5005763;28;20057;-88
2022/10/23 02:52:47;;;;;;;1.48;1.00;;;8.60;99.90;;;;;;5012201;28;20056;-91
2022/10/23 02:55:27;;;;;;;2.40;1.38;;;8.60;99.90;;;;;;5012634;28;20506;-88
2022/10/23 02:58:02;;;;;;;3.05;1.33;;;8.60;99.90;;;;;;5013304;28;20556;-88
2022/10/23 03:00:31;;;;;;;1.33;1.05;;;7.20;99.90;;;;;;5012105;28;20089;-88
2022/10/23 03:03:04;;;;;;;1.48;0.90;;;9.40;99.90;;;;;;5012483;28;20096;-89
2022/10/23 03:05:35;;;;;;;1.55;0.88;;;8.60;99.90;;;;;;5011481;28;20086;-88
2022/10/23 03:08:06;;;;;;;1.33;0.93;;;9.30;99.90;;;;;;4999640;28;20057;-89
2022/10/23 03:10:32;;;;;;;1.77;0.93;;;8.60;99.90;;;;;;5014035;28;20084;-89
2022/10/23 03:12:58;;;;;;;1.80;1.10;;;9.70;99.90;;;;;;5012560;28;20437;-88
2022/10/23 03:15:24;;;;;;;1.25;0.80;;;8.70;99.90;;;;;;4997233;28;20068;-88
2022/10/23 03:17:49;;;;;;;1.30;0.80;;;9.30;99.90;;;;;;4999192;28;20053;-89
2022/10/23 03:20:16;;;;;;;1.10;0.90;;;8.70;99.90;;;;;;4992974;28;20058;-89
2022/10/23 03:22:41;;;;;;;1.25;0.93;;;8.60;99.90;;;;;;4994222;28;20038;-91
2022/10/23 03:25:08;;;;;;;1.20;0.90;;;8.60;99.90;;;;;;5011803;28;20053;-90
2022/10/23 03:27:34;;;;;;;1.75;1.10;;;8.50;99.90;;;;;;5070118;28;20425;-89
2022/10/23 03:29:59;;;;;;;1.70;1.13;;;8.50;99.90;;;;;;5067655;28;20044;-92
2022/10/23 03:32:25;;;;;;;2.20;1.15;;;8.80;99.90;;;;;;5075504;28;20453;-89
2022/10/23 03:34:51;;;;;;;1.80;1.20;;;9.30;99.90;;;;;;5092780;28;20040;-89
2022/10/23 03:37:17;;;;;;;2.45;1.20;;;8.50;99.90;;;;;;5086596;28;20891;-89
2022/10/23 03:39:42;;;;;;;2.08;1.05;;;9.00;99.90;;;;;;5072540;28;20037;-88
2022/10/23 03:42:08;;;;;;;2.22;1.20;;;8.00;99.90;;;;;;5074310;28;20051;-90
2022/10/23 03:44:34;;;;;;;2.35;1.40;;;9.60;99.90;;;;;;5075868;28;20089;-88
2022/10/23 03:47:00;;;;;;;1.52;1.30;;;9.40;99.90;;;;;;5088280;28;20451;-91
2022/10/23 03:49:26;;;;;;;1.58;1.00;;;9.10;99.90;;;;;;5063868;28;20070;-87
2022/10/23 03:51:54;;;;;;;2.08;1.15;;;9.00;99.90;;;;;;5089419;28;20040;-88
2022/10/23 03:54:24;;;;;;;1.88;1.10;;;8.60;99.90;;;;;;5069189;28;20048;-89
2022/10/23 03:56:51;;;;;;;2.35;1.13;;;8.80;99.90;;;;;;5097480;28;20040;-89
2022/10/23 03:59:17;;;;;;;2.38;1.20;;;9.00;99.90;;;;;;5069799;28;20049;-88
2022/10/23 04:01:44;;;;;;;1.27;0.88;;;8.70;99.90;;;;;;5075344;28;20055;-89
2022/10/23 04:04:11;;;;;;;1.33;0.90;;;9.00;99.90;;;;;;5095075;28;20056;-90
2022/10/23 04:06:37;;;;;;;2.00;1.17;;;9.30;99.90;;;;;;5060095;28;20068;-89
2022/10/23 04:09:04;;;;;;;1.88;1.25;;;9.60;99.90;;;;;;5067274;28;20401;-90
2022/10/23 04:11:30;;;;;;;2.13;1.50;;;9.00;99.90;;;;;;5092589;28;20040;-91
2022/10/23 04:13:56;;;;;;;2.40;1.50;;;9.30;99.90;;;;;;5058437;28;20044;-90
2022/10/23 04:16:23;;;;;;;2.85;1.35;;;9.50;99.90;;;;;;5090150;28;20036;-89
2022/10/23 04:18:48;;;;;;;1.85;1.30;;;9.50;99.90;;;;;;5069547;28;20028;-90
2022/10/23 04:21:14;;;;;;;2.75;1.60;;;9.80;99.90;;;;;;5068867;28;20542;-91
2022/10/23 04:23:40;;;;;;;3.40;1.27;;;9.20;99.90;;;;;;5074760;28;20400;-89
2022/10/23 04:26:06;;;;;;;3.40;1.30;;;9.40;99.90;;;;;;5057442;28;20051;-89
2022/10/23 04:28:32;;;;;;;4.07;2.05;;;7.50;99.90;;;;;;5084238;28;20032;-91
2022/10/23 04:30:58;;;;;;;3.10;1.65;;;8.80;99.90;;;;;;5083089;28;20557;-89
2022/10/23 04:33:24;;;;;;;2.65;1.50;;;9.30;99.90;;;;;;5093331;28;20054;-88
2022/10/23 04:35:49;;;;;;;3.75;1.60;;;8.80;99.90;;;;;;5066580;28;20079;-89
2022/10/23 04:38:15;;;;;;;3.42;1.90;;;9.90;99.90;;;;;;5092682;28;20064;-90
2022/10/23 04:40:41;;;;;;;2.80;1.40;;;9.40;99.90;;;;;;5093411;28;20059;-89
2022/10/23 04:43:07;;;;;;;2.83;1.73;;;8.40;99.90;;;;;;5074626;28;20553;-90
2022/10/23 04:45:32;;;;;;;3.13;1.77;;;9.80;99.90;;;;;;5091739;28;20500;-87
2022/10/23 04:47:58;;;;;;;3.67;2.03;;;9.80;99.90;;;;;;5058952;28;20504;-89
2022/10/23 04:50:25;;;;;;;1.88;1.40;;;8.90;99.90;;;;;;5067156;28;20088;-93
2022/10/23 04:52:55;;;;;;;4.68;1.98;;;8.80;99.90;;;;;;5090649;28;20055;-89
2022/10/23 04:55:20;;;;;;;4.25;2.00;;;8.90;99.90;;;;;;5089888;28;20043;-90
2022/10/23 04:57:46;;;;;;;3.67;1.83;;;9.70;99.90;;;;;;5062115;28;20051;-88
2022/10/23 05:00:14;;;;;;;4.70;1.65;;;9.20;99.90;;;;;;5092135;28;20078;-89
2022/10/23 05:02:40;;;;;;;3.58;1.90;;;8.90;99.90;;;;;;5071931;28;20496;-89
2022/10/23 05:05:07;;;;;;;4.55;1.60;;;9.80;99.90;;;;;;5064475;28;20048;-90
2022/10/23 05:07:34;;;;;;;4.63;1.55;;;8.80;99.90;;;;;;5076124;28;20063;-88
2022/10/23 05:09:59;;;;;;;2.28;1.42;;;8.80;99.90;;;;;;5068071;28;20086;-89
2022/10/23 05:12:26;;;;;;;5.10;1.90;;;8.80;99.90;;;;;;5056186;28;20483;-90
2022/10/23 05:14:52;;;;;;;3.90;1.58;;;9.50;99.90;;;;;;5057083;28;20115;-90
2022/10/23 05:17:22;;;;;;;3.53;1.55;;;8.90;99.90;;;;;;5057915;28;20081;-89
2022/10/23 05:19:56;;;;;;;2.70;1.35;;;9.00;99.90;;;;;;5066038;28;20036;-88
2022/10/23 05:22:25;;;;;;;4.20;2.00;;;8.80;99.90;;;;;;5091591;28;20929;-89
2022/10/23 05:24:52;;;;;;;2.95;1.58;;;9.40;99.90;;;;;;5076218;28;20453;-91
2022/10/23 05:27:18;;;;;;;4.90;1.98;;;9.10;99.90;;;;;;5061392;28;20044;-88
2022/10/23 05:29:43;;;;;;;2.35;1.40;;;9.60;99.90;;;;;;5091682;28;20101;-89
2022/10/23 05:32:11;;;;;;;2.78;1.55;;;9.00;99.90;;;;;;5073770;28;20391;-88
2022/10/23 05:34:39;;;;;;;5.30;1.80;;;9.60;99.90;;;;;;5082638;28;20389;-88
2022/10/23 05:37:08;;;;;;;4.13;1.88;;;9.00;99.90;;;;;;5083903;28;20036;-88
2022/10/23 05:39:34;;;;;;;4.03;2.47;;;9.60;99.90;;;;;;5074097;28;20048;-90
2022/10/23 05:42:00;;;;;;;3.20;1.85;;;9.00;99.90;;;;;;5092131;28;20055;-88
2022/10/23 05:44:25;;;;;;;2.97;1.80;;;9.50;99.90;;;;;;5062054;28;20041;-88
2022/10/23 05:46:51;;;;;;;3.72;1.80;;;9.00;99.90;;;;;;5084519;28;20187;-88
2022/10/23 05:49:17;;;;;;;4.78;2.10;;;9.00;99.90;;;;;;5092221;28;20048;-88
2022/10/23 05:51:42;;;;;;;2.92;1.52;;;9.00;99.90;;;;;;5073327;28;20051;-87
2022/10/23 05:54:08;;;;;;;3.90;1.88;;;9.80;99.90;;;;;;5077471;28;20483;-91
2022/10/23 05:56:40;;;;;;;3.50;1.88;;;9.20;99.90;;;;;;5072186;28;20102;-88
2022/10/23 05:59:06;;;;;;;3.20;1.83;;;9.30;99.90;;;;;;5092453;28;20046;-88
2022/10/23 06:01:33;;;;;;;2.90;1.48;;;10.20;99.90;;;;;;5095351;28;20136;-87
2022/10/23 06:03:59;;;;;;;3.72;1.83;;;9.00;99.90;;;;;;5073467;28;20040;-88
2022/10/23 06:06:27;;;;;;;4.57;2.00;;;8.00;99.90;;;;;;5067489;28;20052;-88
2022/10/23 06:08:54;;;;;;;3.05;1.65;;;9.00;99.90;;;;;;5071827;28;20076;-88
2022/10/23 06:11:19;;;;;;;3.53;1.75;;;9.20;99.90;;;;;;5095170;28;20401;-91
2022/10/23 06:13:47;;;;;;;2.97;1.50;;;9.40;99.90;;;;;;5077695;28;20031;-90
2022/10/23 06:16:18;;;;;;;3.88;2.20;;;9.80;99.90;;;;;;5076965;28;20043;-88
2022/10/23 06:18:47;;;;;;;5.03;2.35;;;9.70;99.90;;;;;;5068698;28;20044;-89
2022/10/23 06:21:13;;;;;;;2.97;1.63;;;8.90;99.90;;;;;;5088114;28;20040;-89
2022/10/23 06:23:41;;;;;;;3.65;1.70;;;9.30;99.90;;;;;;5076235;28;20051;-93
2022/10/23 06:26:09;;;;;;;3.78;1.77;;;9.90;99.90;;;;;;5087480;28;20044;-95
2022/10/23 06:28:35;;;;;;;3.40;1.75;;;8.90;99.90;;;;;;5073384;28;20511;-90
2022/10/23 06:31:10;;;;;;;2.80;1.40;;;9.00;99.90;;;;;;5079983;28;20075;-89
2022/10/23 06:33:35;;;;;;;3.80;2.17;;;9.30;99.90;;;;;;5063539;28;20127;-91
2022/10/23 06:36:02;;;;;;;3.40;1.88;;;8.90;99.90;;;;;;5061271;28;20110;-88
2022/10/23 06:38:48;;;;;;;4.20;2.22;;;8.90;99.90;;;;;;5078282;28;20032;-92
2022/10/23 06:41:18;;;;;;;4.18;1.90;;;8.40;99.90;;;;;;5078661;28;20119;-90
2022/10/23 06:43:47;;;;;;;3.88;2.10;;;9.80;99.90;;;;;;5077426;28;20401;-93
2022/10/23 06:46:13;;;;;;;3.40;1.58;;;8.90;99.90;;;;;;5067019;28;20047;-88
2022/10/23 06:48:41;;;;;;;3.97;1.90;;;9.40;99.90;;;;;;5069911;28;20047;-95
2022/10/23 06:51:09;;;;;;;2.65;1.33;;;9.90;99.90;;;;;;5095561;28;20039;-89
2022/10/23 06:53:36;;;;;;;3.05;1.70;;;9.00;99.90;;;;;;5069925;28;20067;-94
2022/10/23 06:56:04;;;;;;;3.47;1.83;;;9.10;99.90;;;;;;5076347;28;20043;-90
2022/10/23 06:58:34;;;;;;;3.80;1.70;;;9.20;99.90;;;;;;5099122;28;20048;-88
2022/10/23 07:01:03;;;;;;;3.00;1.42;;;9.90;99.90;;;;;;5087595;28;20054;-93
2022/10/23 07:03:29;;;;;;;3.88;1.90;;;10.00;99.90;;;;;;5069514;28;20044;-91
2022/10/23 07:05:55;;;;;;;4.15;1.52;;;9.50;99.90;;;;;;5087861;28;20135;-93
2022/10/23 07:08:23;;;;;;;6.20;2.33;;;9.30;99.90;;;;;;5060734;28;20040;-93
2022/10/23 07:10:48;;;;;;;2.47;1.48;;;9.40;99.90;;;;;;5060673;28;20055;-91
2022/10/23 07:15:44;;;;;;;2.95;1.52;;;9.50;99.90;;;;;;5051022;28;20049;-90
2022/10/23 07:18:39;;;;;;;3.47;1.58;;;9.50;99.90;;;;;;5008368;28;20504;-93
2022/10/23 07:21:37;;;;;;;3.30;1.52;;;9.50;99.90;;;;;;5054494;28;20481;-90
2022/10/23 07:24:29;;;;;;;;;;;;;;;;;;;;;
2022/10/23 07:27:15;;;;;;;3.55;1.40;;;9.90;99.90;;;;;;5043460;28;20049;-90
2022/10/23 07:30:03;;;;;;;3.42;1.58;;;9.70;99.90;;;;;;5051376;28;20033;-91
2022/10/23 07:32:35;;;;;;;2.42;1.27;;;10.00;99.90;;;;;;5035488;28;20057;-89
2022/10/23 07:35:01;;;;;;;2.92;1.63;;;9.80;99.90;;;;;;5044561;28;20132;-89
2022/10/23 07:37:34;;;;;;;3.10;1.70;;;9.90;99.90;;;;;;5045478;28;20040;-91
2022/10/23 07:40:18;;;;;;;2.75;1.52;;;9.90;99.90;;;;;;5009337;28;20124;-90
2022/10/23 07:43:05;;;;;;;2.80;1.73;;;9.50;99.90;;;;;;5024617;28;20057;-89
2022/10/23 07:45:41;;;;;;;3.78;2.05;;;10.20;99.90;;;;;;5025024;28;20045;-91
2022/10/23 07:51:49;;;;;;;3.75;1.60;;;10.10;99.90;;;;;;5038923;28;19990;-88
2022/10/23 07:54:21;;;;;;;5.88;1.83;;;10.30;99.90;;;;;;5016831;28;20044;-88
2022/10/23 07:56:52;;;;;;;3.42;1.67;;;9.80;99.90;;;;;;5053090;28;20049;-89
2022/10/23 07:59:25;;;;;;;2.47;1.17;;;10.30;99.90;;;;;;5051896;28;20473;-90
2022/10/23 08:01:55;;;;;;;2.17;1.27;;;10.30;99.90;;;;;;5044942;28;20051;-90
2022/10/23 08:04:22;;;;;;;3.13;1.20;;;10.50;99.90;;;;;;5050990;28;20044;-89
2022/10/23 08:06:51;;;;;;;2.53;1.52;;;11.00;99.90;;;;;;5045614;28;20489;-89
2022/10/23 08:09:53;;;;;;;3.78;1.60;;;10.50;99.90;;;;;;5034025;28;20225;-89
2022/10/23 08:12:24;;;;;;;3.65;1.50;;;10.50;99.90;;;;;;5049484;28;20493;-90
2022/10/23 08:14:53;;;;;;;4.65;1.95;;;11.10;99.90;;;;;;5008151;28;20468;-91
2022/10/23 08:17:26;;;;;;;4.05;1.77;;;10.70;99.90;;;;;;5023829;28;20040;-89
2022/10/23 08:19:59;;;;;;;3.92;1.52;;;11.50;99.90;;;;;;5048892;28;20041;-90
2022/10/23 08:22:28;;;;;;;2.92;1.30;;;10.90;99.90;;;;;;5045654;28;20056;-89
2022/10/23 08:25:04;;;;;;;2.95;1.92;;;10.90;99.90;;;;;;5052049;28;20028;-90
2022/10/23 08:27:50;;;;;;;2.50;1.38;;;10.90;99.90;;;;;;5034684;28;20045;-92
2022/10/23 08:30:34;;;;;;;3.65;2.25;;;11.10;99.90;;;;;;5034612;28;20444;-92
2022/10/23 08:33:03;;;;;;;4.85;2.47;;;10.70;99.90;;;;;;5018140;28;20477;-92
2022/10/23 08:35:38;;;;;;;4.80;1.98;;;11.20;99.90;;;;;;5052317;28;20164;-89
2022/10/23 08:38:09;;;;;;;6.35;1.98;;;11.00;99.90;;;;;;5051391;28;20048;-89
2022/10/23 08:40:44;;;;;;;5.15;2.20;;;11.40;99.90;;;;;;5026610;28;20052;-90
2022/10/23 08:43:40;;;;;;;7.47;2.78;;;11.40;99.90;;;;;;5034936;28;20047;-90
2022/10/23 08:46:40;;;;;;;4.78;2.10;;;11.50;99.90;;;;;;5027779;28;20044;-90
2022/10/23 08:49:26;;;;;;;;;;;;;;;;;;;;;
2022/10/23 08:51:57;;;;;;;5.50;2.40;;;11.60;99.90;;;;;;4987265;28;20054;-90
2022/10/23 08:54:43;;;;;;;3.55;2.15;;;11.70;99.90;;;;;;5003054;28;20053;-90
2022/10/23 08:57:14;;;;;;;4.82;1.90;;;11.70;99.90;;;;;;4971661;28;20109;-90
2022/10/23 08:59:54;;;;;;;3.60;1.85;;;11.80;99.90;;;;;;4955571;28;20090;-91
2022/10/23 09:02:50;;;;;;;2.70;1.40;;;11.90;99.90;;;;;;4943541;28;20093;-90
2022/10/23 09:05:59;;;;;;;1.50;1.05;;;11.90;99.90;;;;;;4963244;28;20085;-89
2022/10/23 09:08:53;;;;;;;5.70;1.58;;;12.00;99.90;;;;;;4966614;28;20055;-92
2022/10/23 09:11:37;;;;;;;3.20;1.70;;;12.20;99.90;;;;;;4973524;28;20062;-92
2022/10/23 09:14:29;;;;;;;4.57;1.58;;;11.80;99.90;;;;;;4962951;28;20524;-90
2022/10/23 09:17:16;;;;;;;3.95;1.58;;;12.10;99.90;;;;;;4962304;28;20063;-90
2022/10/23 09:19:44;;;;;;;2.25;1.48;;;12.10;99.90;;;;;;4994923;28;20072;-87
2022/10/23 09:22:11;;;;;;;2.92;1.85;;;13.00;99.90;;;;;;4978132;28;20069;-91
2022/10/23 09:24:41;;;;;;;4.57;1.95;;;12.50;99.90;;;;;;4995974;28;20065;-95
2022/10/23 09:27:17;;;;;;;;;;;12.60;99.90;;;;;;5011616;28;20054;-86
2022/10/23 09:29:53;;;;;;;6.10;1.90;;;12.70;99.90;;;;;;5050401;22;19928;-92
2022/10/23 09:33:04;;;;;;;3.13;2.00;;;12.80;99.90;;;;;;5040183;28;20048;-93
2022/10/23 09:35:33;;;;;;;3.63;1.98;;;13.20;99.90;;;;;;4954438;28;20138;-86
2022/10/23 09:38:00;;;;;;;8.57;1.95;;;13.10;99.90;;;;;;4984154;28;20054;-92
2022/10/23 09:40:48;;;;;;;5.60;2.10;;;13.10;99.90;;;;;;4963624;28;20059;-88
2022/10/23 09:43:24;;;;;;;3.65;2.00;;;13.10;99.90;;;;;;4919211;29;20444;-90
2022/10/23 09:46:03;;;;;;;4.38;1.90;;;13.30;99.90;;;;;;4928100;29;20055;-90
2022/10/23 09:52:10;;;;;;;6.10;2.08;;;13.30;99.90;;;;;;4925750;29;20073;-86
2022/10/23 09:54:43;;;;;;;5.82;1.73;;;13.80;99.90;;;;;;4929956;29;20127;-90
2022/10/23 09:57:42;;;;;;;3.35;1.42;;;13.40;99.90;;;;;;4927873;29;20047;-89
2022/10/23 10:00:14;;;;;;;3.28;1.30;;;13.50;99.90;;;;;;4913715;29;20139;-86
2022/10/23 10:02:42;;;;;;;3.28;1.42;;;13.50;99.90;;;;;;4932174;29;20378;-93
2022/10/23 10:05:36;;;;;;;2.50;1.25;;;13.60;99.90;;;;;;4915066;29;20568;-89
2022/10/23 10:08:16;;;;;;;6.25;1.98;;;13.40;99.90;;;;;;4921618;29;20068;-87
2022/10/23 10:10:56;;;;;;;3.67;1.70;;;13.70;99.90;;;;;;4907877;29;20082;-91
2022/10/23 10:13:37;;;;;;;3.47;1.50;;;13.70;99.90;;;;;;4991127;28;20049;-87
2022/10/23 10:16:23;;;;;;;3.25;1.40;;;13.80;99.90;;;;;;5035024;28;20037;-88
2022/10/23 10:19:13;;;;;;;2.20;0.98;;;13.60;99.90;;;;;;4983663;28;20038;-87
2022/10/23 10:22:24;;;;;;;3.05;1.30;;;14.00;99.90;;;;;;5082565;28;20056;-87
2022/10/23 10:24:54;;;;;;;4.07;1.40;;;14.20;99.90;;;;;;4997103;28;20062;-89
2022/10/23 10:28:01;;;;;;;3.40;1.48;;;14.20;99.90;;;;;;4981252;28;20127;-87
2022/10/23 10:30:51;;;;;;;4.63;1.90;;;14.30;99.90;;;;;;4942416;28;20059;-87
2022/10/23 10:33:21;;;;;;;4.18;1.25;;;14.40;99.90;;;;;;4929069;29;20073;-86
2022/10/23 10:36:24;;;;;;;2.10;1.10;;;14.50;99.90;;;;;;4941042;29;20086;-90
2022/10/23 10:39:00;;;;;;;3.33;1.00;;;14.60;99.90;;;;;;4945154;29;20044;-87
2022/10/23 10:41:52;;;;;;;2.55;1.10;;;14.70;99.90;;;;;;4950638;29;20055;-89
2022/10/23 10:44:29;;;;;;;3.83;1.67;;;14.80;99.90;;;;;;4886032;29;20161;-90
2022/10/23 11:01:44;;;;;;;2.25;1.02;;;15.30;99.90;;;;;;4922438;29;20106;-87
2022/10/23 11:04:12;;;;;;;1.92;0.77;;;15.30;99.90;;;;;;4955216;29;20055;-88
2022/10/23 11:06:43;;;;;;;2.90;1.40;;;15.40;99.90;;;;;;4944358;28;20051;-89
2022/10/23 11:09:27;;;;;;;1.35;0.90;;;15.30;99.90;;;;;;5012176;28;20065;-86
2022/10/23 11:11:53;;;;;;;1.92;1.17;;;15.50;99.90;;;;;;4994917;28;20038;-89
2022/10/23 11:14:22;;;;;;;3.22;0.80;;;15.60;99.90;;;;;;5003035;28;20062;-88
2022/10/23 11:17:00;;;;;;;1.95;0.70;;;15.60;99.90;;;;;;5004111;28;20041;-91
2022/10/23 11:19:36;;;;;;;3.42;1.08;;;15.70;99.90;;;;;;5003531;28;20053;-87
2022/10/23 11:22:09;;;;;;;2.67;1.00;;;15.70;99.90;;;;;;5042356;28;20108;-88
2022/10/23 11:24:47;;;;;;;1.67;0.95;;;15.80;99.90;;;;;;5045085;28;20036;-86
2022/10/23 11:27:31;;;;;;;3.55;1.40;;;15.80;99.90;;;;;;5054768;28;20041;-87
2022/10/23 11:30:28;;;;;;;3.55;1.20;;;15.90;99.90;;;;;;5049629;28;20044;-87
2022/10/23 11:33:22;;;;;;;3.08;0.90;;;15.90;99.90;;;;;;5048852;28;20076;-89
2022/10/23 11:36:04;;;;;;;2.42;1.08;;;15.90;99.90;;;;;;4952619;28;20056;-87
2022/10/23 11:38:37;;;;;;;4.47;0.98;;;16.00;99.90;;;;;;4973961;28;20131;-85
2022/10/23 11:41:25;;;;;;;2.92;1.15;;;16.00;99.90;;;;;;4974399;28;20058;-84
2022/10/23 11:44:05;;;;;;;3.38;1.08;;;16.20;99.90;;;;;;4959760;28;20134;-84
2022/10/23 11:46:37;;;;;;;2.90;1.30;;;16.10;99.90;;;;;;4959245;28;20071;-84
2022/10/23 11:49:19;;;;;;;2.67;0.98;;;16.20;99.90;;;;;;4959061;28;20039;-84
2022/10/23 11:51:44;;;;;;;2.78;1.23;;;16.20;99.90;;;;;;4974819;28;20396;-84
2022/10/23 11:54:12;;;;;;;1.67;0.90;;;16.20;99.90;;;;;;4983844;28;20094;-84
2022/10/23 11:56:49;;;;;;;0.88;0.60;;;16.30;99.90;;;;;;4974704;28;20064;-85
2022/10/23 11:59:30;;;;;;;2.17;0.90;;;16.30;99.90;;;;;;4953212;28;20054;-87
2022/10/23 12:01:59;;;;;;;2.45;1.33;;;16.20;99.90;;;;;;4966800;28;20073;-84
2022/10/23 12:04:36;;;;;;;4.80;1.35;;;16.20;99.90;;;;;;4967269;28;20162;-87
2022/10/23 12:07:12;;;;;;;4.57;1.50;;;16.20;99.90;;;;;;4961657;28;20067;-90
2022/10/23 12:09:43;;;;;;;3.40;1.25;;;16.20;99.90;;;;;;5171691;22;20065;-88
2022/10/23 12:12:09;;;;;;;2.47;0.93;;;16.40;99.90;;;;;;5037103;28;20045;-93
2022/10/23 12:15:08;;;;;;;3.17;0.93;;;16.30;99.90;;;;;;5056476;28;20432;-91
2022/10/23 12:21:53;;;;;;;3.05;1.00;;;16.30;99.90;;;;;;5057137;28;20060;-89
2022/10/23 12:24:22;;;;;;;4.75;1.20;;;16.30;99.90;;;;;;5034590;28;20047;-88
2022/10/23 12:27:00;;;;;;;3.05;0.98;;;16.20;99.90;;;;;;5040955;28;20075;-84
2022/10/23 12:29:44;;;;;;;2.35;1.30;;;16.30;99.90;;;;;;5057196;28;20037;-86
2022/10/23 12:32:21;;;;;;;1.63;1.10;;;16.10;99.90;;;;;;5047295;28;20434;-85
2022/10/23 12:35:09;;;;;;;1.40;0.88;;;16.10;99.90;;;;;;5018582;28;20130;-85
2022/10/23 12:38:16;;;;;;;1.38;0.70;;;16.20;99.90;;;;;;5053611;28;20171;-86
2022/10/23 12:41:12;;;;;;;5.60;1.77;;;16.10;99.90;;;;;;4970007;28;20053;-86
2022/10/23 12:43:40;;;;;;;2.38;0.98;;;16.10;99.90;;;;;;4973001;28;20078;-86
2022/10/23 12:46:08;;;;;;;2.97;1.13;;;16.20;99.90;;;;;;4957485;28;20042;-89
2022/10/23 12:48:34;;;;;;;1.85;1.13;;;16.20;99.90;;;;;;4957213;28;20093;-89
2022/10/23 12:51:00;;;;;;;1.83;1.10;;;16.20;99.90;;;;;;4957453;28;20145;-91
2022/10/23 12:53:26;;;;;;;5.18;1.38;;;16.20;99.90;;;;;;4957051;28;20038;-87
2022/10/23 12:56:03;;;;;;;4.35;1.50;;;16.20;99.90;;;;;;4956501;28;20059;-85
2022/10/23 12:58:31;;;;;;;1.70;0.93;;;16.20;99.90;;;;;;4972768;28;20395;-85
2022/10/23 13:01:00;;;;;;;7.47;1.10;;;16.20;99.90;;;;;;4956319;28;20065;-85
2022/10/23 13:03:28;;;;;;;3.05;0.82;;;16.20;99.90;;;;;;4972903;28;20054;-87
2022/10/23 13:06:01;;;;;;;4.03;1.33;;;16.20;99.90;;;;;;4972489;28;20039;-87
2022/10/23 13:08:41;;;;;;;2.08;1.10;;;16.90;99.90;;;;;;4956014;28;20058;-88
2022/10/23 13:11:13;;;;;;;1.85;0.65;;;16.30;99.90;;;;;;4972983;28;20051;-87
2022/10/23 13:13:40;;;;;;;1.10;0.80;;;16.30;99.90;;;;;;4982964;28;20070;-85
2022/10/23 13:16:22;;;;;;;1.23;0.80;;;16.30;99.90;;;;;;5053021;28;20141;-86
2022/10/23 13:18:50;;;;;;;1.35;0.70;;;16.30;99.90;;;;;;5053328;28;20045;-85
2022/10/23 13:21:24;;;;;;;0.93;0.65;;;16.70;99.90;;;;;;5035796;28;20052;-86
2022/10/23 13:23:51;;;;;;;1.33;0.60;;;16.40;99.90;;;;;;5035846;28;20420;-85
2022/10/23 13:26:32;;;;;;;1.38;0.90;;;16.30;99.90;;;;;;5045697;28;20057;-85
2022/10/23 13:29:02;;;;;;;1.73;0.75;;;16.30;99.90;;;;;;5035625;28;20041;-87
2022/10/23 13:31:34;;;;;;;3.00;0.70;;;16.40;99.90;;;;;;5035196;28;20053;-88
2022/10/23 13:34:00;;;;;;;2.95;0.70;;;16.40;99.90;;;;;;5036185;28;20045;-88
2022/10/23 13:36:28;;;;;;;3.65;0.57;;;16.40;99.90;;;;;;5036433;28;20119;-88
2022/10/23 13:39:08;;;;;;;1.05;0.50;;;16.40;99.90;;;;;;5036189;28;20099;-88
2022/10/23 13:41:43;;;;;;;1.92;0.70;;;16.40;99.90;;;;;;5030400;28;20095;-90
2022/10/23 13:44:12;;;;;;;8.70;0.80;;;16.40;99.90;;;;;;5018584;28;20490;-86
2022/10/23 13:46:38;;;;;;;0.82;0.50;;;16.40;99.90;;;;;;5054030;28;20041;-87
2022/10/23 13:49:04;;;;;;;1.20;0.57;;;16.40;99.90;;;;;;5053269;28;20124;-86
2022/10/23 13:51:40;;;;;;;0.70;0.50;;;16.40;99.90;;;;;;5053230;28;20599;-86
2022/10/23 13:54:12;;;;;;;2.75;0.88;;;16.50;99.90;;;;;;5053066;28;20041;-86
2022/10/23 13:56:38;;;;;;;1.95;0.63;;;16.40;99.90;;;;;;5034814;28;20055;-85
2022/10/23 13:59:04;;;;;;;2.72;0.85;;;16.80;99.90;;;;;;5053119;28;20431;-85